This is the latest recevied weather packets stored in our database for station/object EA1EXV-11. If no packets are shown the sender has not sent any weather packets the latest 10 day(s).
| Time | Temp. | Humidity | Pressure | Rain* | Wind** | Luminosity | Snow |
|---|---|---|---|---|---|---|---|
| 1778264449 | 17.22° C | 56% | 1009.9 hPa | - | - | - | - |
| 1778263549 | 18.89° C | 56% | 1009.9 hPa | - | - | - | - |
| 1778262649 | 17.78° C | 55% | 1009.9 hPa | - | - | - | - |
| 1778261749 | 19.44° C | 53% | 1009.9 hPa | - | - | - | - |
| 1778260849 | 22.78° C | 53% | 1009.9 hPa | - | - | - | - |
| 1778259948 | 18.89° C | 58% | 1009.9 hPa | - | - | - | - |
| 1778259048 | 18.33° C | 59% | 1010 hPa | - | - | - | - |
| 1778258276 | 17.78° C | 59% | 1010 hPa | - | - | - | - |
| 1778258148 | 17.78° C | 59% | 1010 hPa | - | - | - | - |
| 1778257302 | 17.78° C | 59% | 1010 hPa | - | - | - | - |
| 1778257255 | 17.78° C | 59% | 1010 hPa | - | - | - | - |
| 1778256350 | 17.78° C | 58% | 1010 hPa | - | - | - | - |
| 1778255448 | 18.33° C | 58% | 1010.1 hPa | - | - | - | - |
| 1778254701 | 18.89° C | 57% | 1010 hPa | - | - | - | - |
| 1778254548 | 18.89° C | 57% | 1010 hPa | - | - | - | - |
| 1778253647 | 17.22° C | 57% | 1010.1 hPa | - | - | - | - |
| 1778252747 | 17.22° C | 56% | 1010.1 hPa | - | - | - | - |
| 1778251847 | 17.78° C | 56% | 1010.2 hPa | - | - | - | - |
| 1778250947 | 18.33° C | 55% | 1010.3 hPa | - | - | - | - |
| 1778250047 | 19.44° C | 55% | 1010.4 hPa | - | - | - | - |
| 1778249146 | 17.78° C | 56% | 1010.6 hPa | - | - | - | - |
| 1778248247 | 17.22° C | 54% | 1010.6 hPa | - | - | - | - |
| 1778247346 | 17.22° C | 51% | 1010.5 hPa | - | - | - | - |
| 1778246446 | 20° C | 47% | 1010.1 hPa | - | - | - | - |
| 1778245546 | 23.33° C | 46% | 1009.8 hPa | - | - | - | - |
* Rain since midnight (hover to see other rain measurements)
** Current wind speed in m/s (hover to see current wind gust speed)